Airfield :
LOGIN :

Register | Disclaimer

   EN    FR    IT 

 










Legend :    VFR   Marginal VFR   IFR   Intensive IFR   Very Intensive IFR
Visi :
Ceiling :
>= 8 km
>= 3000ft
5 to 8 km
1000 to 3000 ft
1500m to 5 km
500 to 1000 ft
800 to 1500m
200 to 500 ft
< 800m
< 200 ft
Symbols :   Thunderstorms  Fog  Heavy snow  Heavy precipitations  Wind > 20 kt
SIGMETs :     Misc.  Thunderstorms  Icing  Turbulence  Mountain Waves  Volcanic Ashes






- Airport Elevation : 75 ft
- IATA code : MRH


EGYM - RAF Marham

CURRENT METAR :
  • 191650Z 19013KT 7000 -RA SCT009 SCT014 BKN020 06/05 Q1015 TEMPO 9999 -RA RMK GRN GRN

EXPIRED METARs :
  • 191622Z 18012KT 7000 -RA SCT009 SCT014 BKN020 06/05 Q1015 TEMPO 9999 -RA RMK GRN GRN
  • 191550Z 18011KT 7000 -RA FEW009 SCT014 BKN020 05/05 Q1016 TEMPO 9999 -RA RMK GRN TEMPO GRN
  • 191519Z 18011KT 7000 -RA FEW011 SCT014 BKN025 05/04 Q1016 GRN TEMPO 9999 -RA GRN
  • 191450Z 20012KT 7000 -RA FEW014 SCT022 BKN045 05/04 Q1017 TEMPO SCT014 RMK WHT TEMPO GRN

TAF TAF EGYM
Valid from the 19 at 15:00 until the 19 at 19:00 UTC


191330Z 1915/1919 22015KT 9999 FEW015 SCT020
PROB40
TEMPO 1915/1919 6000 RA SCT008 OVC015



MET'MAP, your aeronautical weather chart ! - Copyright ORBIFLY December 2007 - Disclaimer

ORBIFLY MET'MAP TEAM :

Programming & Development : Alexandra Zaïnal
Concept & original design : Baudouin d'Aumeries
Assistance for programming : Marc-Olivier Méhu
Technical & hardware support : Manuel Goepfert

Contact : metmap@orbifly.com




SOURCES & CREDITS :

   NOAA